MSC Magnifica — 3FLO4 — position and weather

sailwx.info

Track history (hours):
 
Tides and Currents Weather Stations Pressure Air Temp Water Temp Dewpoint Dewpoint Depression Visibility Wind Speed Wind Dir Waves Ship Positions

MSC Magnifica

Last reported at 2017-Aug-20 20:30 UTC. Time now 2017-Aug-20 20:47 UTC.
Position N 54°47' E 012°50'.

Length 294 m; draft 8.1 m.

Type: Passenger vessel. MMSI: 352594000.

Date/timePositionNaut miles runAvg speedWind from/ knotsBaromVisibWave heightAir tempDewpointWater temp
2017-Aug-20 20:30N 54°47' E 012°50'1914.2
2017-Aug-20 19:09N 54°36' E 012°21'714.0
2017-Aug-20 18:39N 54°30' E 012°16'2112.6
2017-Aug-20 17:00N 54°10' E 012°06'0 0.0
2017-Aug-20 13:24N 54°10' E 012°06'3 0.4
2017-Aug-20 04:57N 54°13' E 012°04'1211.6
2017-Aug-20 03:55N 54°25' E 011°56'3 6.8
2017-Aug-20 03:29N 54°26' E 012°01'4 7.5
2017-Aug-20 02:59N 54°27' E 012°07'4 7.2
2017-Aug-20 02:26N 54°30' E 012°11'3 8.1
2017-Aug-20 02:00N 54°33' E 012°13'4 7.7
2017-Aug-20 01:30N 54°37' E 012°15'4 7.6
2017-Aug-20 01:00N 54°40' E 012°19'5 7.7
2017-Aug-20 00:22N 54°44' E 012°24'4 7.7
2017-Aug-19 23:48N 54°47' E 012°29'16 7.3
2017-Aug-19 21:33N 55°03' E 012°39'1 8.2
2017-Aug-19 21:28N 55°03' E 012°39'4 8.1
2017-Aug-19 20:59N 55°07' E 012°38'4 7.9
2017-Aug-19 20:30N 55°11' E 012°38'4 8.0
2017-Aug-19 20:00N 55°15' E 012°38'4 8.0
2017-Aug-19 19:30N 55°19' E 012°38'4 7.7
2017-Aug-19 19:00N 55°23' E 012°38'4 8.0
2017-Aug-19 18:30N 55°27' E 012°40'4 8.8
2017-Aug-19 18:00N 55°31' E 012°42'4 7.9
2017-Aug-19 17:30N 55°35' E 012°42'4 8.2
2017-Aug-19 17:00N 55°39' E 012°41'5 9.1
2017-Aug-19 16:30N 55°43' E 012°38'0 0.8
2017-Aug-19 15:59N 55°43' E 012°38'0 0.0
2017-Aug-19 15:28N 55°43' E 012°38'0 0.0
2017-Aug-19 14:58N 55°43' E 012°38'0 0.0
2017-Aug-19 13:58N 55°43' E 012°38'0 0.0
2017-Aug-19 13:28N 55°43' E 012°38'0 0.0
2017-Aug-19 12:58N 55°43' E 012°38'0 0.0
2017-Aug-19 12:28N 55°43' E 012°38'0 0.0
2017-Aug-19 11:59N 55°43' E 012°38'0 0.0
2017-Aug-19 11:30N 55°43' E 012°38'0 0.0
2017-Aug-19 11:00N 55°43' E 012°38'0 0.0
2017-Aug-19 10:30N 55°43' E 012°38'0 0.0
2017-Aug-19 10:00N 55°43' E 012°38'0 0.0
2017-Aug-19 09:29N 55°43' E 012°38'0 0.0
2017-Aug-19 08:58N 55°43' E 012°38'0 0.0
2017-Aug-19 08:28N 55°43' E 012°38'0 0.0
2017-Aug-19 07:58N 55°43' E 012°38'0 0.0
2017-Aug-19 07:28N 55°43' E 012°38'0 0.0
2017-Aug-19 06:58N 55°43' E 012°38'1 3.1
2017-Aug-19 06:30N 55°44' E 012°40'815.2
2017-Aug-19 06:01N 55°51' E 012°45'917.1
2017-Aug-19 05:30N 55°59' E 012°41'816.4
2017-Aug-19 05:00N 56°06' E 012°33'917.5
2017-Aug-19 04:30N 56°11' E 012°20'510.9
2017-Aug-19 04:00N 56°14' E 012°12'5013.4
2017-Aug-19 00:18N 57°01' E 011°42'414.5
2017-Aug-19 00:00N 57°05' E 011°39'714.0
2017-Aug-18 23:28N 57°12' E 011°35'613.6
2017-Aug-18 23:00N 57°18' E 011°31'713.8
2017-Aug-18 22:30N 57°25' E 011°26'713.4
2017-Aug-18 22:00N 57°30' E 011°19'713.8
2017-Aug-18 21:29N 57°35' E 011°09'713.9
2017-Aug-18 21:00N 57°39' E 010°60'714.2
2017-Aug-18 20:30N 57°44' E 010°50'714.5
2017-Aug-18 20:00N 57°47' E 010°38'815.8
2017-Aug-18 19:28N 57°47' E 010°22'715.9
2017-Aug-18 19:00N 57°46' E 010°08'815.2
2017-Aug-18 18:31N 57°46' E 009°54'7516.6
2017-Aug-18 14:00N 57°42' E 007°34'917.6
2017-Aug-18 13:30N 57°42' E 007°17'917.9
2017-Aug-18 12:59N 57°42' E 007°00'917.7
2017-Aug-18 12:30N 57°43' E 006°44'916.8
2017-Aug-18 11:59N 57°45' E 006°29'817.3
2017-Aug-18 11:30N 57°50' E 006°17'917.3
2017-Aug-18 11:00N 57°56' E 006°04'917.4
2017-Aug-18 10:31N 58°02' E 005°52'917.6
2017-Aug-18 09:59N 58°08' E 005°39'1517.5
2017-Aug-18 09:06N 58°18' E 005°17'417.7
2017-Aug-18 08:51N 58°21' E 005°11'617.7
2017-Aug-18 08:30N 58°26' E 005°03'917.6
2017-Aug-18 07:59N 58°32' E 004°51'817.2
2017-Aug-18 07:31N 58°38' E 004°40'1117.0
2017-Aug-18 06:51N 58°46' E 004°25'11016.1
2017-Aug-18 00:02N 60°36' E 004°22'017.1
2017-Aug-18 00:00N 60°36' E 004°22'816.5
2017-Aug-17 23:30N 60°43' E 004°31'814.9
2017-Aug-17 23:00N 60°46' E 004°46'714.1
2017-Aug-17 22:29N 60°52' E 004°41'816.2
2017-Aug-17 22:00N 60°60' E 004°47'918.1
2017-Aug-17 21:30N 61°05' E 005°03'817.1
2017-Aug-17 21:00N 61°05' E 005°20'917.3
2017-Aug-17 20:30N 61°07' E 005°38'918.2
2017-Aug-17 20:00N 61°09' E 005°56'2136.4
2017-Aug-17 19:24N 61°11' E 006°40'0 0.4
2017-Aug-17 18:40N 61°11' E 006°41'316.9
2017-Aug-17 18:30N 61°10' E 006°47'917.2
2017-Aug-17 18:00N 61°05' E 007°00'816.7
2017-Aug-17 17:30N 60°57' E 007°08'5 9.7
2017-Aug-17 17:00N 60°52' E 007°08'1 1.1
2017-Aug-17 16:29N 60°52' E 007°07'0 0.0
2017-Aug-17 15:59N 60°52' E 007°07'0 0.0
2017-Aug-17 15:29N 60°52' E 007°07'0 0.0
2017-Aug-17 14:59N 60°52' E 007°07'0 0.0
2017-Aug-17 14:29N 60°52' E 007°07'0 0.0
2017-Aug-17 13:59N 60°52' E 007°07'0 0.0
2017-Aug-17 13:29N 60°52' E 007°07'0 0.0
2017-Aug-17 12:59N 60°52' E 007°07'0 0.0
2017-Aug-17 12:29N 60°52' E 007°07'0 0.0
2017-Aug-17 11:59N 60°52' E 007°07'0 0.0
2017-Aug-17 11:29N 60°52' E 007°07'0 0.0
2017-Aug-17 10:59N 60°52' E 007°07'0 0.0
2017-Aug-17 10:29N 60°52' E 007°07'0 0.0
2017-Aug-17 09:59N 60°52' E 007°07'0 0.0
2017-Aug-17 09:29N 60°52' E 007°07'0 0.0
2017-Aug-17 08:59N 60°52' E 007°07'0 0.0
2017-Aug-17 08:29N 60°52' E 007°07'0 0.0
2017-Aug-17 07:59N 60°52' E 007°07'0 0.0
2017-Aug-17 07:29N 60°52' E 007°07'0 0.0
2017-Aug-17 06:59N 60°52' E 007°07'0 0.0
2017-Aug-17 06:29N 60°52' E 007°07'0 0.0
2017-Aug-17 05:59N 60°52' E 007°07'2 4.8
2017-Aug-17 05:30N 60°54' E 007°09'612.8
2017-Aug-17 05:00N 60°60' E 007°03'816.4
2017-Aug-17 04:30N 61°07' E 006°55'816.4
2017-Aug-17 04:00N 61°11' E 006°41'815.4
2017-Aug-17 03:30N 61°06' E 006°28'917.0
2017-Aug-17 03:00N 61°08' E 006°10'917.3
2017-Aug-17 02:30N 61°08' E 005°52'917.3
2017-Aug-17 02:00N 61°06' E 005°35'816.2
2017-Aug-17 01:30N 61°05' E 005°19'816.9
2017-Aug-17 01:00N 61°10' E 005°05'611.9
2017-Aug-17 00:30N 61°13' E 004°55'918.9
2017-Aug-17 00:00N 61°14' E 004°36'916.7
2017-Aug-16 23:30N 61°21' E 004°25'917.6
2017-Aug-16 23:00N 61°30' E 004°25'918.5
2017-Aug-16 22:30N 61°39' E 004°27'918.1
2017-Aug-16 22:00N 61°48' E 004°30'918.3
2017-Aug-16 21:30N 61°56' E 004°38'918.5
2017-Aug-16 21:00N 62°04' E 004°48'918.4
2017-Aug-16 20:30N 62°12' E 004°58'918.3
2017-Aug-16 20:00N 62°19' E 005°11'918.7
2017-Aug-16 19:30N 62°25' E 005°27'918.5
2017-Aug-16 19:00N 62°27' E 005°46'918.7
2017-Aug-16 18:30N 62°24' E 006°05'918.4
2017-Aug-16 18:00N 62°25' E 006°25'1019.8
2017-Aug-16 17:30N 62°28' E 006°44'917.3
2017-Aug-16 17:00N 62°21' E 006°56'816.8
2017-Aug-16 16:30N 62°13' E 007°02'714.1
2017-Aug-16 15:59N 62°06' E 007°01'510.3
2017-Aug-16 15:30N 62°06' E 007°11'0 0.6
2017-Aug-16 14:59N 62°06' E 007°12'0 0.0
2017-Aug-16 14:29N 62°06' E 007°12'0 0.0
2017-Aug-16 13:59N 62°06' E 007°12'0 0.0
2017-Aug-16 13:29N 62°06' E 007°12'0 0.0
2017-Aug-16 12:59N 62°06' E 007°12'0 0.0
2017-Aug-16 12:29N 62°06' E 007°12'0 0.0
2017-Aug-16 11:59N 62°06' E 007°12'0 0.0
2017-Aug-16 11:29N 62°06' E 007°12'0 0.0
2017-Aug-16 10:59N 62°06' E 007°12'0 0.0
2017-Aug-16 10:29N 62°06' E 007°12'0 0.0
2017-Aug-16 09:59N 62°06' E 007°12'0 0.0
2017-Aug-16 09:29N 62°06' E 007°12'0 0.0
2017-Aug-16 08:59N 62°06' E 007°12'0 0.0
2017-Aug-16 08:29N 62°06' E 007°12'0 0.0
2017-Aug-16 07:59N 62°06' E 007°12'0 0.1
2017-Aug-16 07:30N 62°06' E 007°12'1 1.7
2017-Aug-16 06:59N 62°07' E 007°11'4 7.3
2017-Aug-16 06:30N 62°05' E 007°04'4 2.1
2017-Aug-16 04:35N 62°07' E 006°55'216.9
2017-Aug-16 04:29N 62°08' E 006°58'816.5
2017-Aug-16 04:00N 62°16' E 007°01'816.4
2017-Aug-16 03:30N 62°23' E 006°55'715.2
2017-Aug-16 03:00N 62°28' E 006°42'917.0
2017-Aug-16 02:30N 62°24' E 006°25'916.9
2017-Aug-16 02:00N 62°23' E 006°07'715.1
2017-Aug-16 01:30N 62°27' E 005°53'815.0
2017-Aug-16 01:00N 62°27' E 005°37'714.9
2017-Aug-16 00:30N 62°24' E 005°22'815.5
2017-Aug-16 00:00N 62°19' E 005°09'815.7
2017-Aug-15 23:30N 62°13' E 004°58'816.2
2017-Aug-15 23:00N 62°05' E 004°51'815.5
2017-Aug-15 22:30N 61°59' E 004°44'816.3
2017-Aug-15 22:00N 61°51' E 004°36'917.9
2017-Aug-15 21:30N 61°43' E 004°28'4916.0
2017-Aug-15 18:26N 60°54' E 004°16'716.9
2017-Aug-15 18:00N 60°49' E 004°26'817.1
2017-Aug-15 17:30N 60°45' E 004°41'714.9
2017-Aug-15 17:00N 60°40' E 004°52'918.3
2017-Aug-15 16:30N 60°31' E 004°58'917.3
2017-Aug-15 16:00N 60°24' E 005°08'5 9.7
2017-Aug-15 15:30N 60°24' E 005°18'0 0.6
2017-Aug-15 14:59N 60°23' E 005°19'0 0.0
2017-Aug-15 14:23N 60°23' E 005°19'0 0.0
2017-Aug-15 13:59N 60°23' E 005°19'0 0.0
2017-Aug-15 13:29N 60°23' E 005°19'0 0.0
2017-Aug-15 12:59N 60°23' E 005°19'0 0.0
2017-Aug-15 12:29N 60°23' E 005°19'0 0.0
2017-Aug-15 11:59N 60°23' E 005°18'0 0.0
2017-Aug-15 11:29N 60°23' E 005°19'0 0.0
2017-Aug-15 10:59N 60°23' E 005°19'0 0.0
2017-Aug-15 10:29N 60°23' E 005°19'0 0.0
2017-Aug-15 09:59N 60°23' E 005°19'0 0.0
2017-Aug-15 09:29N 60°23' E 005°19'0 0.0
2017-Aug-15 08:59N 60°23' E 005°19'0 0.0
2017-Aug-15 08:29N 60°23' E 005°19'0 0.0
2017-Aug-15 07:59N 60°23' E 005°19'0 0.8
2017-Aug-15 07:30N 60°24' E 005°18'5 9.4
2017-Aug-15 07:01N 60°24' E 005°09'814.5
2017-Aug-15 06:29N 60°29' E 004°59'816.4
2017-Aug-15 06:00N 60°37' E 004°53'815.6
2017-Aug-15 05:30N 60°44' E 004°46'612.6
2017-Aug-15 05:00N 60°42' E 004°33'917.4
2017-Aug-15 04:30N 60°35' E 004°25'11116.7
2017-Aug-14 21:50N 58°44' E 004°42'618.2
2017-Aug-14 21:30N 58°40' E 004°50'918.1
2017-Aug-14 21:01N 58°33' E 005°02'917.8
2017-Aug-14 20:29N 58°26' E 005°14'817.6
2017-Aug-14 20:00N 58°20' E 005°25'918.1
2017-Aug-14 19:30N 58°14' E 005°38'917.7
2017-Aug-14 19:00N 58°08' E 005°51'917.7
2017-Aug-14 18:30N 58°02' E 006°03'917.6
2017-Aug-14 18:00N 57°57' E 006°16'917.9
2017-Aug-14 17:30N 57°51' E 006°28'917.2
2017-Aug-14 17:00N 57°46' E 006°43'917.8
2017-Aug-14 16:30N 57°46' E 006°59'917.7
2017-Aug-14 16:00N 57°45' E 007°16'918.2
2017-Aug-14 15:30N 57°45' E 007°33'917.7
2017-Aug-14 15:00N 57°45' E 007°49'917.6
2017-Aug-14 14:30N 57°45' E 008°06'6917.0
2017-Aug-14 10:27N 57°49' E 010°15'817.2
2017-Aug-14 10:00N 57°49' E 010°29'816.4
2017-Aug-14 09:30N 57°49' E 010°45'916.8
2017-Aug-14 08:57N 57°42' E 010°57'716.9
2017-Aug-14 08:31N 57°37' E 011°08'917.1
2017-Aug-14 08:00N 57°32' E 011°19'816.7
2017-Aug-14 07:30N 57°24' E 011°28'917.6
2017-Aug-14 07:00N 57°16' E 011°33'917.7
2017-Aug-14 06:30N 57°08' E 011°39'917.4
2017-Aug-14 05:59N 56°60' E 011°45'1815.4
2017-Aug-14 04:47N 56°41' E 011°50'4717.4
2017-Aug-14 02:06N 56°01' E 011°06'216.7
2017-Aug-14 01:59N 55°60' E 011°03'817.1
2017-Aug-14 01:30N 55°53' E 010°55'816.2
2017-Aug-14 00:59N 55°46' E 010°48'815.6
2017-Aug-14 00:29N 55°38' E 010°48'816.0
2017-Aug-14 00:00N 55°31' E 010°53'816.5
2017-Aug-13 23:30N 55°24' E 011°01'715.3
2017-Aug-13 23:00N 55°17' E 011°04'714.3
2017-Aug-13 22:30N 55°09' E 011°03'815.9
2017-Aug-13 22:00N 55°02' E 011°02'815.1
2017-Aug-13 21:30N 54°55' E 010°55'714.9
2017-Aug-13 21:00N 54°48' E 010°53'815.3
2017-Aug-13 20:31N 54°41' E 010°57'816.4
2017-Aug-13 20:00N 54°37' E 011°10'816.2
2017-Aug-13 19:30N 54°33' E 011°22'816.2
2017-Aug-13 19:00N 54°29' E 011°34'816.3
2017-Aug-13 18:31N 54°26' E 011°47'916.7
2017-Aug-13 17:58N 54°21' E 012°00'814.3
2017-Aug-13 17:26N 54°14' E 012°04'5 0.4
2017-Aug-13 04:33N 54°18' E 011°59'112.9
2017-Aug-13 04:30N 54°19' E 011°59'611.0
2017-Aug-13 03:56N 54°25' E 011°55'3 7.8
2017-Aug-13 03:30N 54°26' E 012°00'4 7.9
2017-Aug-13 03:00N 54°27' E 012°07'4 7.4
2017-Aug-13 02:30N 54°30' E 012°11'4 8.1
2017-Aug-13 02:00N 54°33' E 012°13'4 7.9
2017-Aug-13 01:30N 54°37' E 012°16'4 8.0
2017-Aug-13 01:00N 54°40' E 012°20'23 7.2
2017-Aug-12 21:46N 55°01' E 012°39'3 7.8
2017-Aug-12 21:21N 55°04' E 012°39'4 8.3
2017-Aug-12 20:55N 55°07' E 012°38'3 8.3
2017-Aug-12 20:30N 55°11' E 012°38'4 8.1
2017-Aug-12 20:00N 55°15' E 012°38'4 8.1
2017-Aug-12 19:30N 55°19' E 012°38'4 7.2
2017-Aug-12 19:00N 55°23' E 012°38'4 7.3
2017-Aug-12 18:30N 55°26' E 012°40'4 7.6
2017-Aug-12 18:00N 55°30' E 012°41'4 8.2
2017-Aug-12 17:30N 55°34' E 012°42'4 7.0
2017-Aug-12 17:00N 55°37' E 012°42'611.8
2017-Aug-12 16:31N 55°43' E 012°41'2 3.9
2017-Aug-12 16:00N 55°43' E 012°38'0 0.0
2017-Aug-12 15:30N 55°43' E 012°38'0 0.0
2017-Aug-12 15:00N 55°43' E 012°38'0 0.0
2017-Aug-12 14:30N 55°43' E 012°38'0 0.0
2017-Aug-12 14:00N 55°43' E 012°38'0 0.0
2017-Aug-12 13:30N 55°43' E 012°38'0 0.0
2017-Aug-12 12:59N 55°43' E 012°38'0 0.0
2017-Aug-12 12:29N 55°43' E 012°38'0 0.0
2017-Aug-12 11:59N 55°43' E 012°38'0 0.0
2017-Aug-12 11:28N 55°43' E 012°38'0 0.0
2017-Aug-12 10:58N 55°43' E 012°38'0 0.0
2017-Aug-12 10:28N 55°43' E 012°38'0 0.0
2017-Aug-12 09:58N 55°43' E 012°38'0 0.0
2017-Aug-12 09:28N 55°43' E 012°38'0 0.0
2017-Aug-12 08:58N 55°43' E 012°38'0 0.0
2017-Aug-12 08:30N 55°43' E 012°38'0 0.0
2017-Aug-12 08:00N 55°43' E 012°38'0 0.0
2017-Aug-12 07:30N 55°43' E 012°38'0 0.0
2017-Aug-12 07:00N 55°43' E 012°38'0 0.0
2017-Aug-12 06:30N 55°43' E 012°38'2 3.6
2017-Aug-12 06:00N 55°44' E 012°40'611.3
2017-Aug-12 05:30N 55°38' E 012°42'3 6.9
2017-Aug-12 05:00N 55°35' E 012°42'5 9.2
2017-Aug-12 04:31N 55°30' E 012°42'612.7
2017-Aug-12 04:00N 55°24' E 012°42'611.0
2017-Aug-12 03:30N 55°18' E 012°42'611.5
2017-Aug-12 03:00N 55°16' E 012°51'611.5
2017-Aug-12 02:30N 55°16' E 013°01'611.9
2017-Aug-12 02:00N 55°15' E 013°12'612.2
2017-Aug-12 01:30N 55°15' E 013°22'712.5
2017-Aug-12 00:58N 55°14' E 013°34'612.4
2017-Aug-12 00:30N 55°14' E 013°44'612.3
2017-Aug-12 00:00N 55°13' E 013°55'612.3
2017-Aug-11 23:30N 55°13' E 014°06'612.2
2017-Aug-11 23:00N 55°13' E 014°16'713.2
2017-Aug-11 22:30N 55°18' E 014°24'612.3
2017-Aug-11 22:00N 55°23' E 014°31'612.1
2017-Aug-11 21:30N 55°27' E 014°38'612.7
2017-Aug-11 21:00N 55°30' E 014°48'612.6
2017-Aug-11 20:30N 55°34' E 014°57'612.5
2017-Aug-11 20:00N 55°37' E 015°07'612.7
2017-Aug-11 19:30N 55°40' E 015°17'612.7
2017-Aug-11 19:00N 55°43' E 015°27'712.6
2017-Aug-11 18:29N 55°46' E 015°37'712.4
2017-Aug-11 17:57N 55°49' E 015°47'612.4
2017-Aug-11 17:30N 55°52' E 015°55'612.3
2017-Aug-11 17:00N 55°55' E 016°05'612.4
2017-Aug-11 16:30N 55°58' E 016°14'612.5
2017-Aug-11 16:00N 56°01' E 016°24'612.8
2017-Aug-11 15:30N 56°05' E 016°34'713.0
2017-Aug-11 15:00N 56°09' E 016°43'1312.8
2017-Aug-11 14:00N 56°16' E 017°02'612.7
2017-Aug-11 13:30N 56°20' E 017°11'612.8
2017-Aug-11 13:00N 56°24' E 017°20'612.7
2017-Aug-11 12:30N 56°28' E 017°29'612.7
2017-Aug-11 12:00N 56°32' E 017°38'3012.8
2017-Aug-11 09:39N 56°50' E 018°22'212.9
2017-Aug-11 09:30N 56°52' E 018°24'712.9
2017-Aug-11 09:00N 56°56' E 018°33'713.0
2017-Aug-11 08:28N 57°02' E 018°41'10013.8
2017-Aug-11 01:11N 58°23' E 020°32'314.2
2017-Aug-11 00:59N 58°25' E 020°35'713.9
2017-Aug-11 00:31N 58°30' E 020°42'714.0
2017-Aug-11 00:01N 58°36' E 020°50'714.0
2017-Aug-10 23:30N 58°42' E 020°58'714.0
2017-Aug-10 23:00N 58°47' E 021°06'714.0
2017-Aug-10 22:30N 58°53' E 021°14'714.0
2017-Aug-10 22:01N 58°59' E 021°21'714.1
2017-Aug-10 21:31N 59°04' E 021°29'714.2
2017-Aug-10 21:00N 59°10' E 021°38'714.3
2017-Aug-10 20:31N 59°15' E 021°48'  
Track history (hours):
 
Tides and Currents Weather Stations Pressure Air Temp Water Temp Dewpoint Dewpoint Depression Visibility Wind Speed Wind Dir Waves Ship Positions

MSC Magnifica

Last reported at 2017-Aug-20 20:30 UTC. Time now 2017-Aug-20 20:47 UTC.
Position N 54°47' E 012°50'.

Length 294 m; draft 8.1 m.

Type: Passenger vessel. MMSI: 352594000.

Date/timePositionNaut miles runAvg speedWind from/ knotsBaromVisibWave heightAir tempDewpointWater temp
2017-Aug-20 20:30N 54°47' E 012°50'1914.2
2017-Aug-20 19:09N 54°36' E 012°21'714.0
2017-Aug-20 18:39N 54°30' E 012°16'2112.6
2017-Aug-20 17:00N 54°10' E 012°06'0 0.0
2017-Aug-20 13:24N 54°10' E 012°06'3 0.4
2017-Aug-20 04:57N 54°13' E 012°04'1211.6
2017-Aug-20 03:55N 54°25' E 011°56'3 6.8
2017-Aug-20 03:29N 54°26' E 012°01'4 7.5
2017-Aug-20 02:59N 54°27' E 012°07'4 7.2
2017-Aug-20 02:26N 54°30' E 012°11'3 8.1
2017-Aug-20 02:00N 54°33' E 012°13'4 7.7
2017-Aug-20 01:30N 54°37' E 012°15'4 7.6
2017-Aug-20 01:00N 54°40' E 012°19'5 7.7
2017-Aug-20 00:22N 54°44' E 012°24'4 7.7
2017-Aug-19 23:48N 54°47' E 012°29'16 7.3
2017-Aug-19 21:33N 55°03' E 012°39'1 8.2
2017-Aug-19 21:28N 55°03' E 012°39'4 8.1
2017-Aug-19 20:59N 55°07' E 012°38'4 7.9
2017-Aug-19 20:30N 55°11' E 012°38'4 8.0
2017-Aug-19 20:00N 55°15' E 012°38'4 8.0
2017-Aug-19 19:30N 55°19' E 012°38'4 7.7
2017-Aug-19 19:00N 55°23' E 012°38'4 8.0
2017-Aug-19 18:30N 55°27' E 012°40'4 8.8
2017-Aug-19 18:00N 55°31' E 012°42'4 7.9
2017-Aug-19 17:30N 55°35' E 012°42'4 8.2
2017-Aug-19 17:00N 55°39' E 012°41'5 9.1
2017-Aug-19 16:30N 55°43' E 012°38'0 0.8
2017-Aug-19 15:59N 55°43' E 012°38'0 0.0
2017-Aug-19 15:28N 55°43' E 012°38'0 0.0
2017-Aug-19 14:58N 55°43' E 012°38'0 0.0
2017-Aug-19 13:58N 55°43' E 012°38'0 0.0
2017-Aug-19 13:28N 55°43' E 012°38'0 0.0
2017-Aug-19 12:58N 55°43' E 012°38'0 0.0
2017-Aug-19 12:28N 55°43' E 012°38'0 0.0
2017-Aug-19 11:59N 55°43' E 012°38'0 0.0
2017-Aug-19 11:30N 55°43' E 012°38'0 0.0
2017-Aug-19 11:00N 55°43' E 012°38'0 0.0
2017-Aug-19 10:30N 55°43' E 012°38'0 0.0
2017-Aug-19 10:00N 55°43' E 012°38'0 0.0
2017-Aug-19 09:29N 55°43' E 012°38'0 0.0
2017-Aug-19 08:58N 55°43' E 012°38'0 0.0
2017-Aug-19 08:28N 55°43' E 012°38'0 0.0
2017-Aug-19 07:58N 55°43' E 012°38'0 0.0
2017-Aug-19 07:28N 55°43' E 012°38'0 0.0
2017-Aug-19 06:58N 55°43' E 012°38'1 3.1
2017-Aug-19 06:30N 55°44' E 012°40'815.2
2017-Aug-19 06:01N 55°51' E 012°45'917.1
2017-Aug-19 05:30N 55°59' E 012°41'816.4
2017-Aug-19 05:00N 56°06' E 012°33'917.5
2017-Aug-19 04:30N 56°11' E 012°20'510.9
2017-Aug-19 04:00N 56°14' E 012°12'5013.4
2017-Aug-19 00:18N 57°01' E 011°42'414.5
2017-Aug-19 00:00N 57°05' E 011°39'714.0
2017-Aug-18 23:28N 57°12' E 011°35'613.6
2017-Aug-18 23:00N 57°18' E 011°31'713.8
2017-Aug-18 22:30N 57°25' E 011°26'713.4
2017-Aug-18 22:00N 57°30' E 011°19'713.8
2017-Aug-18 21:29N 57°35' E 011°09'713.9
2017-Aug-18 21:00N 57°39' E 010°60'714.2
2017-Aug-18 20:30N 57°44' E 010°50'714.5
2017-Aug-18 20:00N 57°47' E 010°38'815.8
2017-Aug-18 19:28N 57°47' E 010°22'715.9
2017-Aug-18 19:00N 57°46' E 010°08'815.2
2017-Aug-18 18:31N 57°46' E 009°54'7516.6
2017-Aug-18 14:00N 57°42' E 007°34'917.6
2017-Aug-18 13:30N 57°42' E 007°17'917.9
2017-Aug-18 12:59N 57°42' E 007°00'917.7
2017-Aug-18 12:30N 57°43' E 006°44'916.8
2017-Aug-18 11:59N 57°45' E 006°29'817.3
2017-Aug-18 11:30N 57°50' E 006°17'917.3
2017-Aug-18 11:00N 57°56' E 006°04'917.4
2017-Aug-18 10:31N 58°02' E 005°52'917.6
2017-Aug-18 09:59N 58°08' E 005°39'1517.5
2017-Aug-18 09:06N 58°18' E 005°17'417.7
2017-Aug-18 08:51N 58°21' E 005°11'617.7
2017-Aug-18 08:30N 58°26' E 005°03'917.6
2017-Aug-18 07:59N 58°32' E 004°51'817.2
2017-Aug-18 07:31N 58°38' E 004°40'1117.0
2017-Aug-18 06:51N 58°46' E 004°25'11016.1
2017-Aug-18 00:02N 60°36' E 004°22'017.1
2017-Aug-18 00:00N 60°36' E 004°22'816.5
2017-Aug-17 23:30N 60°43' E 004°31'814.9
2017-Aug-17 23:00N 60°46' E 004°46'714.1
2017-Aug-17 22:29N 60°52' E 004°41'816.2
2017-Aug-17 22:00N 60°60' E 004°47'918.1
2017-Aug-17 21:30N 61°05' E 005°03'817.1
2017-Aug-17 21:00N 61°05' E 005°20'917.3
2017-Aug-17 20:30N 61°07' E 005°38'918.2
2017-Aug-17 20:00N 61°09' E 005°56'2136.4
2017-Aug-17 19:24N 61°11' E 006°40'0 0.4
2017-Aug-17 18:40N 61°11' E 006°41'316.9
2017-Aug-17 18:30N 61°10' E 006°47'917.2
2017-Aug-17 18:00N 61°05' E 007°00'816.7
2017-Aug-17 17:30N 60°57' E 007°08'5 9.7
2017-Aug-17 17:00N 60°52' E 007°08'1 1.1
2017-Aug-17 16:29N 60°52' E 007°07'0 0.0
2017-Aug-17 15:59N 60°52' E 007°07'0 0.0
2017-Aug-17 15:29N 60°52' E 007°07'0 0.0
2017-Aug-17 14:59N 60°52' E 007°07'0 0.0
2017-Aug-17 14:29N 60°52' E 007°07'0 0.0
2017-Aug-17 13:59N 60°52' E 007°07'0 0.0
2017-Aug-17 13:29N 60°52' E 007°07'0 0.0
2017-Aug-17 12:59N 60°52' E 007°07'0 0.0
2017-Aug-17 12:29N 60°52' E 007°07'0 0.0
2017-Aug-17 11:59N 60°52' E 007°07'0 0.0
2017-Aug-17 11:29N 60°52' E 007°07'0 0.0
2017-Aug-17 10:59N 60°52' E 007°07'0 0.0
2017-Aug-17 10:29N 60°52' E 007°07'0 0.0
2017-Aug-17 09:59N 60°52' E 007°07'0 0.0
2017-Aug-17 09:29N 60°52' E 007°07'0 0.0
2017-Aug-17 08:59N 60°52' E 007°07'0 0.0
2017-Aug-17 08:29N 60°52' E 007°07'0 0.0
2017-Aug-17 07:59N 60°52' E 007°07'0 0.0
2017-Aug-17 07:29N 60°52' E 007°07'0 0.0
2017-Aug-17 06:59N 60°52' E 007°07'0 0.0
2017-Aug-17 06:29N 60°52' E 007°07'0 0.0
2017-Aug-17 05:59N 60°52' E 007°07'2 4.8
2017-Aug-17 05:30N 60°54' E 007°09'612.8
2017-Aug-17 05:00N 60°60' E 007°03'816.4
2017-Aug-17 04:30N 61°07' E 006°55'816.4
2017-Aug-17 04:00N 61°11' E 006°41'815.4
2017-Aug-17 03:30N 61°06' E 006°28'917.0
2017-Aug-17 03:00N 61°08' E 006°10'917.3
2017-Aug-17 02:30N 61°08' E 005°52'917.3
2017-Aug-17 02:00N 61°06' E 005°35'816.2
2017-Aug-17 01:30N 61°05' E 005°19'816.9
2017-Aug-17 01:00N 61°10' E 005°05'611.9
2017-Aug-17 00:30N 61°13' E 004°55'918.9
2017-Aug-17 00:00N 61°14' E 004°36'916.7
2017-Aug-16 23:30N 61°21' E 004°25'917.6
2017-Aug-16 23:00N 61°30' E 004°25'918.5
2017-Aug-16 22:30N 61°39' E 004°27'918.1
2017-Aug-16 22:00N 61°48' E 004°30'918.3
2017-Aug-16 21:30N 61°56' E 004°38'918.5
2017-Aug-16 21:00N 62°04' E 004°48'918.4
2017-Aug-16 20:30N 62°12' E 004°58'918.3
2017-Aug-16 20:00N 62°19' E 005°11'918.7
2017-Aug-16 19:30N 62°25' E 005°27'918.5
2017-Aug-16 19:00N 62°27' E 005°46'918.7
2017-Aug-16 18:30N 62°24' E 006°05'918.4
2017-Aug-16 18:00N 62°25' E 006°25'1019.8
2017-Aug-16 17:30N 62°28' E 006°44'917.3
2017-Aug-16 17:00N 62°21' E 006°56'816.8
2017-Aug-16 16:30N 62°13' E 007°02'714.1
2017-Aug-16 15:59N 62°06' E 007°01'510.3
2017-Aug-16 15:30N 62°06' E 007°11'0 0.6
2017-Aug-16 14:59N 62°06' E 007°12'0 0.0
2017-Aug-16 14:29N 62°06' E 007°12'0 0.0
2017-Aug-16 13:59N 62°06' E 007°12'0 0.0
2017-Aug-16 13:29N 62°06' E 007°12'0 0.0
2017-Aug-16 12:59N 62°06' E 007°12'0 0.0
2017-Aug-16 12:29N 62°06' E 007°12'0 0.0
2017-Aug-16 11:59N 62°06' E 007°12'0 0.0
2017-Aug-16 11:29N 62°06' E 007°12'0 0.0
2017-Aug-16 10:59N 62°06' E 007°12'0 0.0
2017-Aug-16 10:29N 62°06' E 007°12'0 0.0
2017-Aug-16 09:59N 62°06' E 007°12'0 0.0
2017-Aug-16 09:29N 62°06' E 007°12'0 0.0
2017-Aug-16 08:59N 62°06' E 007°12'0 0.0
2017-Aug-16 08:29N 62°06' E 007°12'0 0.0
2017-Aug-16 07:59N 62°06' E 007°12'0 0.1
2017-Aug-16 07:30N 62°06' E 007°12'1 1.7
2017-Aug-16 06:59N 62°07' E 007°11'4 7.3
2017-Aug-16 06:30N 62°05' E 007°04'4 2.1
2017-Aug-16 04:35N 62°07' E 006°55'216.9
2017-Aug-16 04:29N 62°08' E 006°58'816.5
2017-Aug-16 04:00N 62°16' E 007°01'816.4
2017-Aug-16 03:30N 62°23' E 006°55'715.2
2017-Aug-16 03:00N 62°28' E 006°42'917.0
2017-Aug-16 02:30N 62°24' E 006°25'916.9
2017-Aug-16 02:00N 62°23' E 006°07'715.1
2017-Aug-16 01:30N 62°27' E 005°53'815.0
2017-Aug-16 01:00N 62°27' E 005°37'714.9
2017-Aug-16 00:30N 62°24' E 005°22'815.5
2017-Aug-16 00:00N 62°19' E 005°09'815.7
2017-Aug-15 23:30N 62°13' E 004°58'816.2
2017-Aug-15 23:00N 62°05' E 004°51'815.5
2017-Aug-15 22:30N 61°59' E 004°44'816.3
2017-Aug-15 22:00N 61°51' E 004°36'917.9
2017-Aug-15 21:30N 61°43' E 004°28'4916.0
2017-Aug-15 18:26N 60°54' E 004°16'716.9
2017-Aug-15 18:00N 60°49' E 004°26'817.1
2017-Aug-15 17:30N 60°45' E 004°41'714.9
2017-Aug-15 17:00N 60°40' E 004°52'918.3
2017-Aug-15 16:30N 60°31' E 004°58'917.3
2017-Aug-15 16:00N 60°24' E 005°08'5 9.7
2017-Aug-15 15:30N 60°24' E 005°18'0 0.6
2017-Aug-15 14:59N 60°23' E 005°19'0 0.0
2017-Aug-15 14:23N 60°23' E 005°19'0 0.0
2017-Aug-15 13:59N 60°23' E 005°19'0 0.0
2017-Aug-15 13:29N 60°23' E 005°19'0 0.0
2017-Aug-15 12:59N 60°23' E 005°19'0 0.0
2017-Aug-15 12:29N 60°23' E 005°19'0 0.0
2017-Aug-15 11:59N 60°23' E 005°18'0 0.0
2017-Aug-15 11:29N 60°23' E 005°19'0 0.0
2017-Aug-15 10:59N 60°23' E 005°19'0 0.0
2017-Aug-15 10:29N 60°23' E 005°19'0 0.0
2017-Aug-15 09:59N 60°23' E 005°19'0 0.0
2017-Aug-15 09:29N 60°23' E 005°19'0 0.0
2017-Aug-15 08:59N 60°23' E 005°19'0 0.0
2017-Aug-15 08:29N 60°23' E 005°19'0 0.0
2017-Aug-15 07:59N 60°23' E 005°19'0 0.8
2017-Aug-15 07:30N 60°24' E 005°18'5 9.4
2017-Aug-15 07:01N 60°24' E 005°09'814.5
2017-Aug-15 06:29N 60°29' E 004°59'816.4
2017-Aug-15 06:00N 60°37' E 004°53'815.6
2017-Aug-15 05:30N 60°44' E 004°46'612.6
2017-Aug-15 05:00N 60°42' E 004°33'917.4
2017-Aug-15 04:30N 60°35' E 004°25'11116.7
2017-Aug-14 21:50N 58°44' E 004°42'618.2
2017-Aug-14 21:30N 58°40' E 004°50'918.1
2017-Aug-14 21:01N 58°33' E 005°02'917.8
2017-Aug-14 20:29N 58°26' E 005°14'817.6
2017-Aug-14 20:00N 58°20' E 005°25'918.1
2017-Aug-14 19:30N 58°14' E 005°38'917.7
2017-Aug-14 19:00N 58°08' E 005°51'917.7
2017-Aug-14 18:30N 58°02' E 006°03'917.6
2017-Aug-14 18:00N 57°57' E 006°16'917.9
2017-Aug-14 17:30N 57°51' E 006°28'917.2
2017-Aug-14 17:00N 57°46' E 006°43'917.8
2017-Aug-14 16:30N 57°46' E 006°59'917.7
2017-Aug-14 16:00N 57°45' E 007°16'918.2
2017-Aug-14 15:30N 57°45' E 007°33'917.7
2017-Aug-14 15:00N 57°45' E 007°49'917.6
2017-Aug-14 14:30N 57°45' E 008°06'6917.0
2017-Aug-14 10:27N 57°49' E 010°15'817.2
2017-Aug-14 10:00N 57°49' E 010°29'816.4
2017-Aug-14 09:30N 57°49' E 010°45'916.8
2017-Aug-14 08:57N 57°42' E 010°57'716.9
2017-Aug-14 08:31N 57°37' E 011°08'917.1
2017-Aug-14 08:00N 57°32' E 011°19'816.7
2017-Aug-14 07:30N 57°24' E 011°28'917.6
2017-Aug-14 07:00N 57°16' E 011°33'917.7
2017-Aug-14 06:30N 57°08' E 011°39'917.4
2017-Aug-14 05:59N 56°60' E 011°45'1815.4
2017-Aug-14 04:47N 56°41' E 011°50'4717.4
2017-Aug-14 02:06N 56°01' E 011°06'216.7
2017-Aug-14 01:59N 55°60' E 011°03'817.1
2017-Aug-14 01:30N 55°53' E 010°55'816.2
2017-Aug-14 00:59N 55°46' E 010°48'815.6
2017-Aug-14 00:29N 55°38' E 010°48'816.0
2017-Aug-14 00:00N 55°31' E 010°53'816.5
2017-Aug-13 23:30N 55°24' E 011°01'715.3
2017-Aug-13 23:00N 55°17' E 011°04'714.3
2017-Aug-13 22:30N 55°09' E 011°03'815.9
2017-Aug-13 22:00N 55°02' E 011°02'815.1
2017-Aug-13 21:30N 54°55' E 010°55'714.9
2017-Aug-13 21:00N 54°48' E 010°53'815.3
2017-Aug-13 20:31N 54°41' E 010°57'816.4
2017-Aug-13 20:00N 54°37' E 011°10'816.2
2017-Aug-13 19:30N 54°33' E 011°22'816.2
2017-Aug-13 19:00N 54°29' E 011°34'816.3
2017-Aug-13 18:31N 54°26' E 011°47'916.7
2017-Aug-13 17:58N 54°21' E 012°00'814.3
2017-Aug-13 17:26N 54°14' E 012°04'5 0.4
2017-Aug-13 04:33N 54°18' E 011°59'112.9
2017-Aug-13 04:30N 54°19' E 011°59'611.0
2017-Aug-13 03:56N 54°25' E 011°55'3 7.8
2017-Aug-13 03:30N 54°26' E 012°00'4 7.9
2017-Aug-13 03:00N 54°27' E 012°07'4 7.4
2017-Aug-13 02:30N 54°30' E 012°11'4 8.1
2017-Aug-13 02:00N 54°33' E 012°13'4 7.9
2017-Aug-13 01:30N 54°37' E 012°16'4 8.0
2017-Aug-13 01:00N 54°40' E 012°20'23 7.2
2017-Aug-12 21:46N 55°01' E 012°39'3 7.8
2017-Aug-12 21:21N 55°04' E 012°39'4 8.3
2017-Aug-12 20:55N 55°07' E 012°38'3 8.3
2017-Aug-12 20:30N 55°11' E 012°38'4 8.1
2017-Aug-12 20:00N 55°15' E 012°38'4 8.1
2017-Aug-12 19:30N 55°19' E 012°38'4 7.2
2017-Aug-12 19:00N 55°23' E 012°38'4 7.3
2017-Aug-12 18:30N 55°26' E 012°40'4 7.6
2017-Aug-12 18:00N 55°30' E 012°41'4 8.2
2017-Aug-12 17:30N 55°34' E 012°42'4 7.0
2017-Aug-12 17:00N 55°37' E 012°42'611.8
2017-Aug-12 16:31N 55°43' E 012°41'2 3.9
2017-Aug-12 16:00N 55°43' E 012°38'0 0.0
2017-Aug-12 15:30N 55°43' E 012°38'0 0.0
2017-Aug-12 15:00N 55°43' E 012°38'0 0.0
2017-Aug-12 14:30N 55°43' E 012°38'0 0.0
2017-Aug-12 14:00N 55°43' E 012°38'0 0.0
2017-Aug-12 13:30N 55°43' E 012°38'0 0.0
2017-Aug-12 12:59N 55°43' E 012°38'0 0.0
2017-Aug-12 12:29N 55°43' E 012°38'0 0.0
2017-Aug-12 11:59N 55°43' E 012°38'0 0.0
2017-Aug-12 11:28N 55°43' E 012°38'0 0.0
2017-Aug-12 10:58N 55°43' E 012°38'0 0.0
2017-Aug-12 10:28N 55°43' E 012°38'0 0.0
2017-Aug-12 09:58N 55°43' E 012°38'0 0.0
2017-Aug-12 09:28N 55°43' E 012°38'0 0.0
2017-Aug-12 08:58N 55°43' E 012°38'0 0.0
2017-Aug-12 08:30N 55°43' E 012°38'0 0.0
2017-Aug-12 08:00N 55°43' E 012°38'0 0.0
2017-Aug-12 07:30N 55°43' E 012°38'0 0.0
2017-Aug-12 07:00N 55°43' E 012°38'0 0.0
2017-Aug-12 06:30N 55°43' E 012°38'2 3.6
2017-Aug-12 06:00N 55°44' E 012°40'611.3
2017-Aug-12 05:30N 55°38' E 012°42'3 6.9
2017-Aug-12 05:00N 55°35' E 012°42'5 9.2
2017-Aug-12 04:31N 55°30' E 012°42'612.7
2017-Aug-12 04:00N 55°24' E 012°42'611.0
2017-Aug-12 03:30N 55°18' E 012°42'611.5
2017-Aug-12 03:00N 55°16' E 012°51'611.5
2017-Aug-12 02:30N 55°16' E 013°01'611.9
2017-Aug-12 02:00N 55°15' E 013°12'612.2
2017-Aug-12 01:30N 55°15' E 013°22'712.5
2017-Aug-12 00:58N 55°14' E 013°34'612.4
2017-Aug-12 00:30N 55°14' E 013°44'612.3
2017-Aug-12 00:00N 55°13' E 013°55'612.3
2017-Aug-11 23:30N 55°13' E 014°06'612.2
2017-Aug-11 23:00N 55°13' E 014°16'713.2
2017-Aug-11 22:30N 55°18' E 014°24'612.3
2017-Aug-11 22:00N 55°23' E 014°31'612.1
2017-Aug-11 21:30N 55°27' E 014°38'612.7
2017-Aug-11 21:00N 55°30' E 014°48'612.6
2017-Aug-11 20:30N 55°34' E 014°57'612.5
2017-Aug-11 20:00N 55°37' E 015°07'612.7
2017-Aug-11 19:30N 55°40' E 015°17'612.7
2017-Aug-11 19:00N 55°43' E 015°27'712.6
2017-Aug-11 18:29N 55°46' E 015°37'712.4
2017-Aug-11 17:57N 55°49' E 015°47'612.4
2017-Aug-11 17:30N 55°52' E 015°55'612.3
2017-Aug-11 17:00N 55°55' E 016°05'612.4
2017-Aug-11 16:30N 55°58' E 016°14'612.5
2017-Aug-11 16:00N 56°01' E 016°24'612.8
2017-Aug-11 15:30N 56°05' E 016°34'713.0
2017-Aug-11 15:00N 56°09' E 016°43'1312.8
2017-Aug-11 14:00N 56°16' E 017°02'612.7
2017-Aug-11 13:30N 56°20' E 017°11'612.8
2017-Aug-11 13:00N 56°24' E 017°20'612.7
2017-Aug-11 12:30N 56°28' E 017°29'612.7
2017-Aug-11 12:00N 56°32' E 017°38'3012.8
2017-Aug-11 09:39N 56°50' E 018°22'212.9
2017-Aug-11 09:30N 56°52' E 018°24'712.9
2017-Aug-11 09:00N 56°56' E 018°33'713.0
2017-Aug-11 08:28N 57°02' E 018°41'10013.8
2017-Aug-11 01:11N 58°23' E 020°32'314.2
2017-Aug-11 00:59N 58°25' E 020°35'713.9
2017-Aug-11 00:31N 58°30' E 020°42'714.0
2017-Aug-11 00:01N 58°36' E 020°50'714.0
2017-Aug-10 23:30N 58°42' E 020°58'714.0
2017-Aug-10 23:00N 58°47' E 021°06'714.0
2017-Aug-10 22:30N 58°53' E 021°14'714.0
2017-Aug-10 22:01N 58°59' E 021°21'714.1
2017-Aug-10 21:31N 59°04' E 021°29'714.2
2017-Aug-10 21:00N 59°10' E 021°38'714.3
2017-Aug-10 20:31N 59°15' E 021°48'  

Dump ship's entire track history